createdAt,value
2023-03-10T00:03:19.875Z,100573.16
2023-03-10T00:08:23.876Z,100572.97
2023-03-10T00:13:30.561Z,100561.34
2023-03-10T00:18:34.293Z,100556.78
2023-03-10T00:23:37.956Z,100554.41
2023-03-10T00:28:43.553Z,100564.16
2023-03-10T00:33:47.269Z,100576.88
2023-03-10T00:38:52.090Z,100559.91
2023-03-10T00:43:57.422Z,100586.47
2023-03-10T00:49:01.188Z,100573.38
2023-03-10T00:54:05.005Z,100574.03
2023-03-10T00:59:13.482Z,100563.63
2023-03-10T01:04:18.007Z,100577.72
2023-03-10T01:09:21.752Z,100572.69
2023-03-10T01:14:27.065Z,100548.38
2023-03-10T01:19:30.771Z,100543.66
2023-03-10T01:24:34.413Z,100549.56
2023-03-10T01:29:39.739Z,100529.75
2023-03-10T01:34:43.388Z,100524.34
2023-03-10T01:39:47.069Z,100549.47
2023-03-10T01:50:22.906Z,100515.66
2023-03-10T01:55:30.390Z,100506.97
2023-03-10T02:00:34.080Z,100512.34
2023-03-10T02:05:44.586Z,100506.53
2023-03-10T02:10:49.318Z,100482.13
2023-03-10T02:15:53.126Z,100494.97
2023-03-10T02:21:07.892Z,100532.31
2023-03-10T02:26:17.307Z,100525.00
2023-03-10T02:31:23.895Z,100510.88
2023-03-10T02:36:27.607Z,100481.50
2023-03-10T02:41:34.407Z,100489.47
2023-03-10T02:46:40.540Z,100497.53
2023-03-10T02:51:46.040Z,100459.44
2023-03-10T02:56:49.677Z,100473.25
2023-03-10T03:01:54.987Z,100449.69
2023-03-10T03:06:58.636Z,100430.13
2023-03-10T03:12:02.260Z,100410.75
2023-03-10T03:17:07.555Z,100424.50
2023-03-10T03:22:11.244Z,100397.13
2023-03-10T03:27:15.013Z,100394.00
2023-03-10T03:32:20.320Z,100394.72
2023-03-10T03:37:23.980Z,100414.56
2023-03-10T03:42:27.632Z,100410.72
2023-03-10T03:47:32.935Z,100376.00
2023-03-10T03:52:36.575Z,100381.97
2023-03-10T03:57:40.912Z,100350.25
2023-03-10T04:02:46.273Z,100363.09
2023-03-10T04:07:49.933Z,100367.22
2023-03-10T04:12:53.644Z,100370.78
2023-03-10T04:17:58.964Z,100366.94
2023-03-10T04:23:02.712Z,100343.31
2023-03-10T04:28:06.447Z,100391.91
2023-03-10T04:33:13.384Z,100365.00
2023-03-10T04:38:17.038Z,100368.72
2023-03-10T04:43:21.418Z,100379.69
2023-03-10T04:48:26.741Z,100369.78
2023-03-10T04:53:30.868Z,100368.19
2023-03-10T04:58:35.864Z,100364.72
2023-03-10T05:03:42.065Z,100361.28
2023-03-10T05:08:45.752Z,100370.31
2023-03-10T05:13:49.406Z,100363.69
2023-03-10T05:18:54.733Z,100336.06
2023-03-10T05:23:58.416Z,100335.81
2023-03-10T05:29:02.037Z,100386.09
2023-03-10T05:34:07.333Z,100348.09
2023-03-10T05:39:11.571Z,100341.78
2023-03-10T05:44:15.202Z,100346.66
2023-03-10T05:49:20.548Z,100335.97
2023-03-10T05:54:24.506Z,100300.56
2023-03-10T05:59:28.183Z,100321.69
2023-03-10T06:04:33.479Z,100275.69
2023-03-10T06:09:37.141Z,100275.81
2023-03-10T06:14:40.827Z,100264.63
2023-03-10T06:19:46.129Z,100310.84
2023-03-10T06:24:49.782Z,100299.28
2023-03-10T06:29:53.425Z,100300.75
2023-03-10T06:35:00.257Z,100282.97
2023-03-10T06:40:03.965Z,100318.59
2023-03-10T06:45:09.203Z,100287.16
2023-03-10T06:50:15.484Z,100285.88
2023-03-10T06:55:18.410Z,100313.41
2023-03-10T07:00:22.345Z,100275.34
2023-03-10T07:05:28.398Z,100248.84
2023-03-10T07:10:32.014Z,100214.00
2023-03-10T07:15:36.191Z,100184.31
2023-03-10T07:20:43.903Z,100171.63
2023-03-10T07:25:47.665Z,100186.28
2023-03-10T07:30:51.578Z,100189.34
2023-03-10T07:35:56.973Z,100133.38
2023-03-10T07:41:02.016Z,100132.75
2023-03-10T07:46:10.112Z,100183.59
2023-03-10T07:51:15.854Z,100205.53
2023-03-10T07:56:19.755Z,100189.16
2023-03-10T08:01:23.674Z,100184.31
2023-03-10T08:06:29.751Z,100155.03
2023-03-10T08:11:33.394Z,100117.31
2023-03-10T08:16:38.179Z,100116.13
2023-03-10T08:21:43.498Z,100111.41
2023-03-10T08:26:47.196Z,100108.66
2023-03-10T08:31:50.939Z,100106.88
2023-03-10T08:36:56.279Z,100241.69
2023-03-10T08:42:00.022Z,100213.22
2023-03-10T08:47:03.731Z,100158.47
2023-03-10T08:52:09.493Z,100167.13
2023-03-10T08:57:13.160Z,100177.06
2023-03-10T09:02:17.408Z,100131.69
2023-03-10T09:07:22.756Z,100097.19
2023-03-10T09:12:30.741Z,100077.22
2023-03-10T09:17:40.165Z,100108.22
2023-03-10T09:22:46.938Z,100236.91
2023-03-10T09:27:50.604Z,100174.03
2023-03-10T09:32:54.466Z,100211.81
2023-03-10T09:37:59.963Z,100259.22
2023-03-10T09:43:05.777Z,100270.41
2023-03-10T09:48:31.431Z,100275.38
2023-03-10T09:53:59.114Z,100250.03
2023-03-10T09:59:08.045Z,100223.25
2023-03-10T10:04:16.537Z,100205.69
2023-03-10T10:09:29.879Z,100210.38
2023-03-10T10:14:33.525Z,100130.63
2023-03-10T10:19:38.238Z,100138.16
2023-03-10T10:24:56.151Z,100155.16
2023-03-10T10:29:59.832Z,100151.00
2023-03-10T10:35:14.933Z,100203.78
2023-03-10T10:40:28.735Z,100177.38
2023-03-10T10:45:35.658Z,100196.16
2023-03-10T10:50:39.428Z,100203.09
2023-03-10T10:55:47.275Z,100220.47
2023-03-10T11:00:55.607Z,100156.63
2023-03-10T11:05:59.397Z,100176.66
2023-03-10T11:11:16.785Z,100269.25
2023-03-10T11:16:26.162Z,100239.91
2023-03-10T11:21:33.074Z,100149.03
2023-03-10T11:26:51.433Z,100240.72
2023-03-10T11:32:03.058Z,100285.28
2023-03-10T11:37:18.822Z,100312.41
2023-03-10T11:42:32.115Z,100432.59
2023-03-10T11:47:49.769Z,100384.66
2023-03-10T11:52:58.635Z,100274.88
2023-03-10T11:58:06.394Z,100205.88
2023-03-10T12:03:20.380Z,100338.78
2023-03-10T12:08:28.923Z,100454.94
2023-03-10T12:13:43.660Z,100488.84
2023-03-10T12:18:48.448Z,100503.50
2023-03-10T12:23:54.025Z,100531.72
2023-03-10T12:29:31.583Z,100493.50
2023-03-10T12:34:35.304Z,100405.59
2023-03-10T12:39:42.727Z,100425.84
2023-03-10T12:44:55.131Z,100323.34
2023-03-10T12:50:06.093Z,100251.28
2023-03-10T12:55:23.889Z,100329.75
2023-03-10T13:00:39.239Z,100338.13
2023-03-10T13:05:56.282Z,100446.69
2023-03-10T13:11:01.296Z,100457.06
2023-03-10T13:16:08.090Z,100462.09
2023-03-10T13:21:24.902Z,100439.34
2023-03-10T13:26:29.153Z,100423.44
2023-03-10T13:31:35.111Z,100460.03
2023-03-10T13:36:40.923Z,100480.03
2023-03-10T13:41:47.445Z,100523.69
2023-03-10T13:46:54.891Z,100531.44
2023-03-10T13:51:59.846Z,100536.97
2023-03-10T13:57:11.600Z,100531.81
2023-03-10T14:02:19.598Z,100529.03
2023-03-10T14:07:24.685Z,100535.84
2023-03-10T14:12:38.471Z,100525.66
2023-03-10T14:17:44.711Z,100513.50
2023-03-10T14:22:47.540Z,100527.44
2023-03-10T14:27:58.872Z,100502.25
2023-03-10T14:33:06.840Z,100517.13
2023-03-10T14:38:10.567Z,100499.00
2023-03-10T14:43:17.246Z,100493.81
2023-03-10T14:48:25.052Z,100519.94
2023-03-10T14:53:29.530Z,100546.22
2023-03-10T14:58:35.389Z,100557.50
2023-03-10T15:03:40.697Z,100553.13
2023-03-10T15:08:44.327Z,100559.97
2023-03-10T15:13:48.014Z,100587.53
2023-03-10T15:18:53.423Z,100588.16
2023-03-10T15:23:57.101Z,100587.31
2023-03-10T15:29:00.750Z,100596.75
2023-03-10T15:34:06.026Z,100611.50
2023-03-10T15:39:12.484Z,100620.91
2023-03-10T15:44:17.984Z,100626.09
2023-03-10T15:49:23.429Z,100641.53
2023-03-10T15:54:27.051Z,100646.41
2023-03-10T15:59:30.665Z,100675.66
2023-03-10T16:04:36.719Z,100690.03
2023-03-10T16:09:40.471Z,100711.19
2023-03-10T16:14:44.135Z,100706.94
2023-03-10T16:19:49.903Z,100713.25
2023-03-10T16:24:53.566Z,100734.88
2023-03-10T16:29:57.207Z,100745.31
2023-03-10T16:35:03.030Z,100739.22
2023-03-10T16:40:07.908Z,100753.78
2023-03-10T16:45:12.210Z,100763.88
2023-03-10T16:50:18.376Z,100793.03
2023-03-10T16:55:21.365Z,100806.91
2023-03-10T17:00:25.556Z,100816.84
2023-03-10T17:05:31.616Z,100822.78
2023-03-10T17:10:36.371Z,100838.69
2023-03-10T17:15:40.045Z,100848.25
2023-03-10T17:20:45.334Z,100866.63
2023-03-10T17:25:49.003Z,100869.25
2023-03-10T17:30:52.619Z,100863.78
2023-03-10T17:35:57.944Z,100847.34
2023-03-10T17:41:04.319Z,100831.75
2023-03-10T17:46:09.541Z,100849.50
2023-03-10T17:51:18.435Z,100854.50
2023-03-10T17:56:22.182Z,100854.44
2023-03-10T18:01:27.405Z,100855.03
2023-03-10T18:06:34.125Z,100855.28
2023-03-10T18:11:37.830Z,100860.13
2023-03-10T18:16:42.585Z,100847.81
2023-03-10T18:21:48.904Z,100871.38
2023-03-10T18:26:52.539Z,100879.94
2023-03-10T18:31:56.190Z,100869.66
2023-03-10T18:37:01.483Z,100862.03
2023-03-10T18:42:06.230Z,100861.31
2023-03-10T18:47:09.940Z,100840.13
2023-03-10T18:52:16.072Z,100826.13
2023-03-10T18:57:18.947Z,100833.13
2023-03-10T19:02:22.604Z,100832.22
2023-03-10T19:07:27.929Z,100800.66
2023-03-10T19:12:31.841Z,100789.53
2023-03-10T19:17:36.042Z,100776.19
2023-03-10T19:22:41.643Z,100844.91
2023-03-10T19:27:45.411Z,100836.28
2023-03-10T19:32:49.746Z,100815.91
2023-03-10T19:37:55.401Z,100816.59
2023-03-10T19:42:59.059Z,100835.00
2023-03-10T19:48:02.721Z,100840.06
2023-03-10T19:53:08.035Z,100831.28
2023-03-10T19:58:11.714Z,100836.38
2023-03-10T20:03:15.866Z,100833.91
2023-03-10T20:08:21.339Z,100829.97
2023-03-10T20:13:24.978Z,100829.56
2023-03-10T20:18:28.658Z,100810.59
2023-03-10T20:23:34.412Z,100821.81
2023-03-10T20:28:38.766Z,100825.34
2023-03-10T20:33:42.455Z,100812.63
2023-03-10T20:38:48.038Z,100807.53
2023-03-10T20:43:51.756Z,100824.47
2023-03-10T20:48:55.385Z,100822.56
2023-03-10T20:54:00.704Z,100823.88
2023-03-10T20:59:04.686Z,100828.97
2023-03-10T21:04:08.474Z,100824.66
2023-03-10T21:09:13.866Z,100813.81
2023-03-10T21:14:17.603Z,100795.16
2023-03-10T21:19:21.335Z,100812.22
2023-03-10T21:24:27.277Z,100807.84
2023-03-10T21:29:30.970Z,100798.19
2023-03-10T21:34:34.675Z,100793.41
2023-03-10T21:39:40.209Z,100778.34
2023-03-10T21:44:43.938Z,100785.56
2023-03-10T21:49:47.576Z,100790.50
2023-03-10T21:54:52.923Z,100787.88
2023-03-10T21:59:56.594Z,100790.19
2023-03-10T22:05:00.280Z,100794.00
2023-03-10T22:10:06.299Z,100798.09
2023-03-10T22:15:14.913Z,100800.59
2023-03-10T22:20:21.244Z,100784.69
2023-03-10T22:25:27.112Z,100798.63
2023-03-10T22:30:30.137Z,100795.06
2023-03-10T22:35:33.879Z,100807.63
2023-03-10T22:40:40.495Z,100793.38
2023-03-10T22:45:44.329Z,100791.34
2023-03-10T22:50:48.019Z,100785.00
2023-03-10T22:55:53.304Z,100798.41
2023-03-10T23:00:57.074Z,100805.09
2023-03-10T23:06:00.791Z,100818.88
2023-03-10T23:11:10.110Z,100836.91
2023-03-10T23:16:13.833Z,100835.25
2023-03-10T23:21:17.521Z,100823.34
2023-03-10T23:26:23.121Z,100825.75
2023-03-10T23:31:26.802Z,100821.72
2023-03-10T23:36:30.481Z,100812.66
2023-03-10T23:41:35.742Z,100814.88
2023-03-10T23:46:39.398Z,100825.13
2023-03-10T23:51:43.020Z,100828.47
2023-03-10T23:56:49.867Z,100846.75
